Time;durP1;ratioP1;P1;durP2;ratioP2;P2;SDS_P1;SDS_P2;PMS_P1;PMS_P2;Temp;Humidity;BMP_temperature;BMP_pressure;BME280_temperature;BME280_humidity;BME280_pressure;Samples;Min_cycle;Max_cycle;Signal;HPM_P1;HPM_P2
2023/02/17 15:41:21;;;;;;;13.73;6.03;;;11.50;99.90;;;;;;5074847;28;20342;-61
2023/02/17 15:43:48;;;;;;;13.30;5.75;;;11.50;99.90;;;;;;5067075;28;20040;-61
2023/02/17 15:46:16;;;;;;;14.75;6.70;;;11.50;99.90;;;;;;5062601;28;20033;-61
2023/02/17 15:48:43;;;;;;;14.05;5.80;;;11.60;99.90;;;;;;5054823;28;20078;-61
2023/02/17 15:51:12;;;;;;;15.02;6.68;;;11.70;99.90;;;;;;5059293;28;20041;-61
2023/02/17 15:53:37;;;;;;;12.10;6.25;;;11.80;99.90;;;;;;5067912;28;20025;-60
2023/02/17 15:56:10;;;;;;;12.00;5.20;;;11.90;99.90;;;;;;5050831;28;20106;-61
2023/02/17 15:58:36;;;;;;;12.20;5.60;;;11.90;99.90;;;;;;5068185;28;20020;-61
2023/02/17 16:01:02;;;;;;;13.73;5.90;;;12.00;99.90;;;;;;5067610;28;20078;-61
2023/02/17 16:03:28;;;;;;;10.77;6.53;;;12.00;99.90;;;;;;5068185;28;20017;-61
2023/02/17 16:05:53;;;;;;;11.02;5.78;;;12.00;99.90;;;;;;5068518;28;20444;-62
2023/02/17 16:08:19;;;;;;;13.65;6.18;;;12.00;99.90;;;;;;5066722;28;20446;-61
2023/02/17 16:10:45;;;;;;;16.80;6.82;;;12.10;99.90;;;;;;5068544;28;20033;-61
2023/02/17 16:13:18;;;;;;;12.82;6.70;;;12.10;99.90;;;;;;5066990;28;20565;-62
2023/02/17 16:15:46;;;;;;;14.90;5.60;;;12.10;99.90;;;;;;5067655;28;20028;-61
2023/02/17 16:18:20;;;;;;;12.23;5.50;;;12.10;99.90;;;;;;5068007;28;20040;-62
2023/02/17 16:20:46;;;;;;;12.20;5.82;;;12.10;99.90;;;;;;5067214;28;20036;-62
2023/02/17 16:23:12;;;;;;;9.93;6.45;;;12.10;99.90;;;;;;5067807;28;20025;-62
2023/02/17 16:25:40;;;;;;;11.70;6.05;;;12.10;99.90;;;;;;5068176;28;20377;-62
2023/02/17 16:28:14;;;;;;;12.65;5.60;;;12.10;99.90;;;;;;5067444;28;20112;-62
2023/02/17 16:30:40;;;;;;;12.10;6.40;;;12.10;99.90;;;;;;5067402;28;20095;-62
2023/02/17 16:33:08;;;;;;;13.93;6.20;;;12.00;99.90;;;;;;5067541;28;20128;-62
2023/02/17 16:35:33;;;;;;;9.73;5.40;;;12.00;99.90;;;;;;5067310;28;20031;-61
2023/02/17 16:38:03;;;;;;;16.27;6.57;;;12.00;99.90;;;;;;5067891;28;20032;-62
2023/02/17 16:40:32;;;;;;;9.82;6.00;;;12.00;99.90;;;;;;5082382;28;20053;-62
2023/02/17 16:42:58;;;;;;;12.63;6.78;;;12.00;99.90;;;;;;5086575;28;20017;-62
2023/02/17 16:45:27;;;;;;;12.07;6.70;;;12.00;99.90;;;;;;5069226;28;20024;-62
2023/02/17 16:47:58;;;;;;;12.38;6.35;;;12.00;99.90;;;;;;5086895;28;20030;-62
2023/02/17 16:50:30;;;;;;;12.63;6.78;;;12.00;99.90;;;;;;5077086;28;20074;-61
2023/02/17 16:53:01;;;;;;;12.20;7.10;;;12.00;99.90;;;;;;5053649;28;20123;-61
2023/02/17 16:55:29;;;;;;;18.52;6.82;;;11.90;99.90;;;;;;5054062;28;20021;-61
2023/02/17 16:57:55;;;;;;;9.98;6.45;;;11.90;99.90;;;;;;5060599;28;20030;-61
2023/02/17 17:00:25;;;;;;;9.35;6.55;;;11.90;99.90;;;;;;5062485;28;20037;-61
2023/02/17 17:02:50;;;;;;;15.63;6.25;;;11.90;99.90;;;;;;5053132;28;20068;-61
2023/02/17 17:05:17;;;;;;;11.57;6.68;;;11.90;99.90;;;;;;5053513;28;20588;-61
2023/02/17 17:07:43;;;;;;;14.75;7.47;;;11.90;99.90;;;;;;5054267;28;20020;-62
2023/02/17 17:10:15;;;;;;;14.27;6.70;;;11.90;99.90;;;;;;5052603;28;20528;-62
2023/02/17 17:12:42;;;;;;;11.40;6.60;;;11.90;99.90;;;;;;5063000;28;20017;-61
2023/02/17 17:15:08;;;;;;;14.30;6.78;;;12.00;99.90;;;;;;5073406;28;20024;-61
2023/02/17 17:17:41;;;;;;;10.38;6.47;;;12.00;99.90;;;;;;5072069;28;20103;-62
2023/02/17 17:20:11;;;;;;;13.52;6.70;;;12.00;99.90;;;;;;5073075;28;20093;-62
2023/02/17 17:22:36;;;;;;;15.57;6.70;;;11.90;99.90;;;;;;5073230;28;20060;-62
2023/02/17 17:25:02;;;;;;;18.58;6.57;;;11.90;99.90;;;;;;5072677;28;20067;-62
2023/02/17 17:27:28;;;;;;;12.32;7.00;;;12.00;99.90;;;;;;5073309;28;20381;-62
2023/02/17 17:29:53;;;;;;;12.05;6.47;;;11.90;99.90;;;;;;5073135;28;20142;-62
2023/02/17 17:32:19;;;;;;;10.68;6.43;;;11.90;99.90;;;;;;5071998;28;20135;-62
2023/02/17 17:34:45;;;;;;;13.25;6.55;;;11.90;99.90;;;;;;5055058;28;20373;-62
2023/02/17 17:37:10;;;;;;;13.18;6.30;;;11.90;99.90;;;;;;5072826;28;20021;-62
2023/02/17 17:39:36;;;;;;;12.18;7.25;;;11.90;99.90;;;;;;5072071;28;20129;-61
2023/02/17 17:42:01;;;;;;;17.90;8.18;;;11.90;99.90;;;;;;5072892;28;20484;-61
2023/02/17 17:44:27;;;;;;;12.60;7.38;;;11.90;99.90;;;;;;5072639;28;20024;-62
2023/02/17 17:46:53;;;;;;;16.40;6.93;;;11.90;99.90;;;;;;5071651;28;20032;-62
2023/02/17 17:49:18;;;;;;;17.75;9.45;;;11.90;99.90;;;;;;5072465;28;20031;-61
2023/02/17 17:51:45;;;;;;;16.65;8.32;;;11.90;99.90;;;;;;5072416;28;20042;-62
2023/02/17 17:54:10;;;;;;;16.05;7.70;;;11.90;99.90;;;;;;5071903;28;20033;-61
2023/02/17 17:56:38;;;;;;;14.30;8.63;;;11.80;99.90;;;;;;5072989;28;20549;-61
2023/02/17 17:59:05;;;;;;;17.73;7.93;;;11.90;99.90;;;;;;5071629;28;20470;-62
2023/02/17 18:01:31;;;;;;;20.52;8.15;;;11.80;99.90;;;;;;5054105;28;20029;-62
2023/02/17 18:03:59;;;;;;;16.58;8.88;;;11.90;99.90;;;;;;5053315;28;20028;-62
2023/02/17 18:06:27;;;;;;;17.17;8.93;;;11.90;99.90;;;;;;5071833;28;20013;-62
2023/02/17 18:08:55;;;;;;;18.58;8.40;;;11.80;99.90;;;;;;5071979;28;20036;-62
2023/02/17 18:11:23;;;;;;;21.63;8.98;;;11.70;99.90;;;;;;5071946;28;20058;-60
2023/02/17 18:13:52;;;;;;;15.48;9.68;;;11.70;99.90;;;;;;5053587;28;20772;-61
2023/02/17 18:16:19;;;;;;;19.52;8.63;;;11.70;99.90;;;;;;5071202;28;20077;-61
2023/02/17 18:18:45;;;;;;;21.02;9.13;;;11.70;99.90;;;;;;5052124;28;20017;-60
2023/02/17 18:21:11;;;;;;;15.50;9.20;;;11.70;99.90;;;;;;5052402;28;20082;-60
2023/02/17 18:23:37;;;;;;;16.73;9.40;;;11.70;99.90;;;;;;5071377;28;20513;-60
2023/02/17 18:26:02;;;;;;;18.52;10.95;;;11.70;99.90;;;;;;5071475;28;20024;-60
2023/02/17 18:28:28;;;;;;;16.35;9.85;;;11.60;99.90;;;;;;5053374;28;20103;-60
2023/02/17 18:30:55;;;;;;;18.67;9.40;;;11.50;99.90;;;;;;5071464;28;20028;-60
2023/02/17 18:33:21;;;;;;;22.73;10.50;;;11.40;99.90;;;;;;5071003;28;20029;-60
2023/02/17 18:35:47;;;;;;;22.85;10.02;;;11.20;99.90;;;;;;5070500;28;20036;-60
2023/02/17 18:38:12;;;;;;;19.50;9.68;;;11.10;99.90;;;;;;5053463;28;20020;-60
2023/02/17 18:40:40;;;;;;;16.00;10.20;;;11.00;99.90;;;;;;5052956;28;20528;-60
2023/02/17 18:43:06;;;;;;;20.92;11.70;;;11.00;99.90;;;;;;5070625;28;20032;-61
2023/02/17 18:45:32;;;;;;;20.95;11.52;;;11.00;99.90;;;;;;5071792;28;20024;-62
2023/02/17 18:47:58;;;;;;;23.38;10.15;;;10.90;99.90;;;;;;5070956;28;20032;-60
2023/02/17 18:50:25;;;;;;;21.50;11.20;;;10.90;99.90;;;;;;5052229;28;20397;-61
2023/02/17 18:52:51;;;;;;;20.42;11.15;;;10.90;99.90;;;;;;5052062;28;20124;-60
2023/02/17 18:55:18;;;;;;;24.73;11.88;;;10.90;99.90;;;;;;5050527;28;20028;-61
2023/02/17 18:57:43;;;;;;;24.38;12.75;;;10.90;99.90;;;;;;5051343;28;20485;-62
2023/02/17 19:00:12;;;;;;;22.42;13.10;;;10.90;99.90;;;;;;5051234;28;20041;-61
2023/02/17 19:02:38;;;;;;;20.70;11.57;;;10.90;99.90;;;;;;5052465;28;20481;-62
2023/02/17 19:05:06;;;;;;;26.52;13.65;;;10.90;99.90;;;;;;5070998;28;20059;-61
2023/02/17 19:07:32;;;;;;;25.23;13.50;;;10.90;99.90;;;;;;5071208;28;20020;-61
2023/02/17 19:09:58;;;;;;;30.02;14.32;;;10.90;99.90;;;;;;5070581;28;20016;-59
2023/02/17 19:12:24;;;;;;;24.35;13.43;;;10.80;99.90;;;;;;5071109;28;20376;-61
2023/02/17 19:14:54;;;;;;;19.80;12.27;;;10.80;99.90;;;;;;5070933;28;20028;-61
2023/02/17 19:17:23;;;;;;;25.38;13.18;;;10.80;99.90;;;;;;5069992;28;20473;-61
2023/02/17 19:19:51;;;;;;;25.52;13.85;;;10.80;99.90;;;;;;5052938;28;20147;-61
2023/02/17 19:22:17;;;;;;;24.70;13.60;;;10.90;99.90;;;;;;5070898;28;20031;-61
2023/02/17 19:24:43;;;;;;;25.85;13.38;;;10.80;99.90;;;;;;5070232;28;20028;-61
2023/02/17 19:27:10;;;;;;;25.08;13.80;;;10.90;99.90;;;;;;5070687;28;20032;-61
2023/02/17 19:29:36;;;;;;;28.65;14.85;;;10.90;99.90;;;;;;5063090;28;20024;-61
2023/02/17 19:32:03;;;;;;;25.23;15.57;;;10.80;99.90;;;;;;5065958;28;20334;-61
2023/02/17 19:34:30;;;;;;;24.73;14.77;;;10.80;99.90;;;;;;5069690;28;20096;-61
2023/02/17 19:36:55;;;;;;;28.73;15.68;;;10.80;99.90;;;;;;5071026;28;20036;-62
2023/02/17 19:39:21;;;;;;;26.45;14.40;;;10.80;99.90;;;;;;5069850;28;20044;-60
2023/02/17 19:41:47;;;;;;;22.42;14.93;;;10.80;99.90;;;;;;5070516;28;20108;-61
2023/02/17 19:44:12;;;;;;;28.95;16.05;;;10.80;99.90;;;;;;5071058;28;20422;-61
2023/02/17 19:46:38;;;;;;;23.25;14.32;;;10.80;99.90;;;;;;5070335;28;20024;-61
2023/02/17 19:49:04;;;;;;;25.58;15.95;;;10.80;99.90;;;;;;5070513;28;20436;-61
2023/02/17 19:51:31;;;;;;;22.60;15.70;;;10.70;99.90;;;;;;5069988;28;20531;-61
2023/02/17 19:53:57;;;;;;;24.50;15.73;;;10.80;99.90;;;;;;5052444;28;20031;-61
2023/02/17 19:56:26;;;;;;;27.40;16.17;;;10.70;99.90;;;;;;5070744;28;20504;-61
2023/02/17 19:58:52;;;;;;;25.70;16.67;;;10.80;99.90;;;;;;5069874;28;20020;-61
2023/02/17 20:01:27;;;;;;;29.00;16.63;;;10.70;99.90;;;;;;5070969;28;20486;-61
2023/02/17 20:03:54;;;;;;;25.38;16.08;;;10.70;99.90;;;;;;5070765;28;20021;-61
2023/02/17 20:06:24;;;;;;;29.35;17.20;;;10.70;99.90;;;;;;5069757;28;20032;-61
2023/02/17 20:09:01;;;;;;;30.25;16.08;;;10.70;99.90;;;;;;5070123;28;20016;-61
2023/02/17 20:11:27;;;;;;;28.98;17.50;;;10.70;99.90;;;;;;5052850;28;20033;-60
2023/02/17 20:13:53;;;;;;;26.55;16.42;;;10.70;99.90;;;;;;5051689;28;20066;-61
2023/02/17 20:16:19;;;;;;;35.90;16.60;;;10.70;99.90;;;;;;5070515;28;20021;-61
2023/02/17 20:18:47;;;;;;;22.38;16.05;;;10.70;99.90;;;;;;5070630;28;20126;-60
2023/02/17 20:21:20;;;;;;;23.23;16.52;;;10.70;99.90;;;;;;5069145;28;20037;-61
2023/02/17 20:23:46;;;;;;;25.42;16.75;;;10.70;99.90;;;;;;5070228;28;20051;-60
2023/02/17 20:26:24;;;;;;;30.73;18.35;;;10.60;99.90;;;;;;5071119;28;20016;-60
2023/02/17 20:28:51;;;;;;;28.40;18.10;;;10.60;99.90;;;;;;5073610;28;20083;-61
2023/02/17 20:31:17;;;;;;;27.23;17.73;;;10.50;99.90;;;;;;5073907;28;20100;-60
2023/02/17 20:33:43;;;;;;;33.50;17.70;;;10.50;99.90;;;;;;5073504;28;20039;-61
2023/02/17 20:36:10;;;;;;;31.80;17.75;;;10.50;99.90;;;;;;5055658;28;20032;-61
2023/02/17 20:38:37;;;;;;;28.98;16.90;;;10.50;99.90;;;;;;5074601;28;20024;-61
2023/02/17 20:41:03;;;;;;;31.08;17.80;;;10.50;99.90;;;;;;5073244;28;20167;-61
2023/02/17 20:43:31;;;;;;;33.85;18.65;;;10.50;99.90;;;;;;5074129;28;20498;-61
2023/02/17 20:45:57;;;;;;;28.25;17.70;;;10.40;99.90;;;;;;5073901;28;20057;-61
2023/02/17 20:48:26;;;;;;;32.38;18.05;;;10.40;99.90;;;;;;5073191;28;20103;-61
2023/02/17 20:50:53;;;;;;;28.50;18.25;;;10.40;99.90;;;;;;5074213;28;20033;-61
2023/02/17 20:53:19;;;;;;;29.10;16.73;;;10.50;99.90;;;;;;5073808;28;20035;-61
2023/02/17 20:55:45;;;;;;;35.47;19.50;;;10.50;99.90;;;;;;5073339;28;20032;-61
2023/02/17 20:58:11;;;;;;;35.95;19.55;;;10.50;99.90;;;;;;5073633;28;20051;-61
2023/02/17 21:00:37;;;;;;;35.38;19.00;;;10.50;99.90;;;;;;5073795;28;20048;-61
2023/02/17 21:03:04;;;;;;;39.28;19.38;;;10.50;99.90;;;;;;5072550;28;20051;-61
2023/02/17 21:05:31;;;;;;;32.10;18.35;;;10.40;99.90;;;;;;5073720;28;20481;-61
2023/02/17 21:07:57;;;;;;;35.78;20.10;;;10.40;99.90;;;;;;5073546;28;20012;-61
2023/02/17 21:10:26;;;;;;;31.50;17.88;;;10.30;99.90;;;;;;5054776;28;20029;-60
2023/02/17 21:12:51;;;;;;;36.78;18.92;;;10.30;99.90;;;;;;5055463;28;20021;-60
2023/02/17 21:15:18;;;;;;;32.97;19.27;;;10.30;99.90;;;;;;5073073;28;20073;-60
2023/02/17 21:17:44;;;;;;;31.15;18.58;;;10.20;99.90;;;;;;5072035;28;20499;-62
2023/02/17 21:20:12;;;;;;;36.00;20.42;;;10.20;99.90;;;;;;5055227;28;20071;-62
2023/02/17 21:22:37;;;;;;;30.70;19.48;;;10.10;99.90;;;;;;5073105;28;20020;-61
2023/02/17 21:25:03;;;;;;;33.60;19.70;;;10.10;99.90;;;;;;5071986;28;20388;-62
2023/02/17 21:27:30;;;;;;;41.40;21.05;;;10.10;99.90;;;;;;5072965;28;20031;-61
2023/02/17 21:29:56;;;;;;;36.50;19.70;;;10.00;99.90;;;;;;5063797;28;20025;-61
2023/02/17 21:32:23;;;;;;;32.45;20.42;;;10.00;99.90;;;;;;5066634;28;20028;-61
2023/02/17 21:34:49;;;;;;;42.47;21.52;;;10.10;99.90;;;;;;5073283;28;20052;-61
2023/02/17 21:37:14;;;;;;;36.97;18.65;;;10.00;99.90;;;;;;5072257;28;20500;-61
2023/02/17 21:39:40;;;;;;;39.10;21.15;;;10.00;99.90;;;;;;5072530;28;20489;-61
2023/02/17 21:42:05;;;;;;;36.55;19.38;;;10.00;99.90;;;;;;5073072;28;20028;-61
2023/02/17 21:47:15;;;;;;;31.38;17.75;;;10.00;99.90;;;;;;5071909;28;20056;-61
2023/02/17 21:49:41;;;;;;;35.47;20.20;;;10.00;99.90;;;;;;5073183;28;20013;-61
